Hauptseite
METAR-TAF:

METAR-TAF

Flughäfen :

RAF Fairford

Fairford, England

Breite: 51-41N, Länge: 001-47W, Höhe: 87 m

Beobachtung

Neuester Wetterbericht von vor 21 Minuten, um 13:31 UTC
Wind 8 kt aus Nord/Nordost
Temperatur 24°C
Luftfeuchtigkeit 44%
Luftdruck 1035 hPa
Sichtweite 10 km oder mehr
Durchbrochene Bewölkung in der Höhe von 4900 ft

METAR: EGVA 271331Z AUTO 03008KT 9999 BKN049 24/11 A3055 RMK AO2 SLP346 $

Zeit: 14:52 (13:52 UTC)


TAF: fehlend

Wetterbeobachtungen und Prognosen von mehr als 4000 Flughäfen (METAR und TAF Bericht).

Die verfügbaren Stationen werden durch gelbe und rote Markierungen auf der Karte dargestellt.

Führen Sie die Maus auf sie, um den Namen der Station zu sehen.

Darauf klicken, um die Beobachtung von Wetterbeobachtungen und Prognosen zu sehen.

Um die Karte zu ändern : klicken Sie auf den grünen Tasten mit einem schwarzen Kreuz Zum Vergrößern, auf den grünen Button mit einem Gedankenstrich zu verkleinern, oder auf die grünen Pfeile für benachbarte Karten.


METAR-TAF: